sensor_id;sensor_type;location;lat;lon;timestamp;pressure;altitude;pressure_sealevel;temperature;humidity
20017;BME280;10169;42.664;23.610;2023-04-02T00:01:38;94418.44;;;6.52;100.00
20017;BME280;10169;42.664;23.610;2023-04-02T00:05:42;94425.91;;;6.27;100.00
20017;BME280;10169;42.664;23.610;2023-04-02T00:07:52;94431.47;;;6.03;100.00
20017;BME280;10169;42.664;23.610;2023-04-02T00:09:52;94433.41;;;5.96;100.00
20017;BME280;10169;42.664;23.610;2023-04-02T00:11:53;94438.09;;;5.82;100.00
20017;BME280;10169;42.664;23.610;2023-04-02T00:13:53;94431.59;;;5.61;100.00
20017;BME280;10169;42.664;23.610;2023-04-02T00:15:54;94430.78;;;5.49;100.00
20017;BME280;10169;42.664;23.610;2023-04-02T00:17:57;94435.59;;;5.41;100.00
20017;BME280;10169;42.664;23.610;2023-04-02T00:19:59;94425.84;;;5.30;100.00
20017;BME280;10169;42.664;23.610;2023-04-02T00:22:01;94433.88;;;5.35;100.00
20017;BME280;10169;42.664;23.610;2023-04-02T00:24:06;94442.22;;;5.32;100.00
20017;BME280;10169;42.664;23.610;2023-04-02T00:26:20;94445.69;;;5.44;100.00
20017;BME280;10169;42.664;23.610;2023-04-02T00:28:21;94440.41;;;5.32;100.00
20017;BME280;10169;42.664;23.610;2023-04-02T00:30:22;94440.84;;;5.18;100.00
20017;BME280;10169;42.664;23.610;2023-04-02T00:32:26;94431.69;;;5.08;100.00
20017;BME280;10169;42.664;23.610;2023-04-02T00:34:31;94428.22;;;5.08;100.00
20017;BME280;10169;42.664;23.610;2023-04-02T00:36:32;94430.41;;;5.23;100.00
20017;BME280;10169;42.664;23.610;2023-04-02T00:38:33;94433.03;;;5.23;100.00
20017;BME280;10169;42.664;23.610;2023-04-02T00:40:34;94426.53;;;5.25;100.00
20017;BME280;10169;42.664;23.610;2023-04-02T00:42:38;94427.47;;;5.42;100.00
20017;BME280;10169;42.664;23.610;2023-04-02T00:44:40;94423.66;;;5.38;100.00
20017;BME280;10169;42.664;23.610;2023-04-02T00:46:43;94420.34;;;5.54;100.00
20017;BME280;10169;42.664;23.610;2023-04-02T00:49:07;94415.88;;;5.55;100.00
20017;BME280;10169;42.664;23.610;2023-04-02T00:53:29;94407.28;;;5.59;100.00
20017;BME280;10169;42.664;23.610;2023-04-02T00:55:31;94415.66;;;5.68;100.00
20017;BME280;10169;42.664;23.610;2023-04-02T00:57:34;94406.72;;;5.80;100.00
20017;BME280;10169;42.664;23.610;2023-04-02T00:59:37;94402.94;;;5.88;100.00
20017;BME280;10169;42.664;23.610;2023-04-02T01:01:42;94395.38;;;5.92;100.00
20017;BME280;10169;42.664;23.610;2023-04-02T01:03:42;94401.53;;;5.97;100.00
20017;BME280;10169;42.664;23.610;2023-04-02T01:05:58;94405.09;;;6.03;100.00
20017;BME280;10169;42.664;23.610;2023-04-02T01:12:42;94410.03;;;5.88;100.00
20017;BME280;10169;42.664;23.610;2023-04-02T01:14:56;94412.34;;;5.84;100.00
20017;BME280;10169;42.664;23.610;2023-04-02T01:21:28;94413.13;;;5.15;100.00
20017;BME280;10169;42.664;23.610;2023-04-02T01:26:07;94431.25;;;4.70;100.00
20017;BME280;10169;42.664;23.610;2023-04-02T01:30:10;94434.53;;;4.36;100.00
20017;BME280;10169;42.664;23.610;2023-04-02T01:32:12;94432.34;;;4.33;100.00
20017;BME280;10169;42.664;23.610;2023-04-02T01:34:15;94437.50;;;4.39;100.00
20017;BME280;10169;42.664;23.610;2023-04-02T01:38:49;94439.22;;;4.64;100.00
20017;BME280;10169;42.664;23.610;2023-04-02T01:40:56;94436.19;;;4.49;100.00
20017;BME280;10169;42.664;23.610;2023-04-02T01:45:20;94443.94;;;4.44;100.00
20017;BME280;10169;42.664;23.610;2023-04-02T01:47:22;94437.78;;;4.50;100.00
20017;BME280;10169;42.664;23.610;2023-04-02T01:49:27;94426.03;;;4.52;100.00
20017;BME280;10169;42.664;23.610;2023-04-02T01:51:31;94440.28;;;4.45;100.00
20017;BME280;10169;42.664;23.610;2023-04-02T01:53:32;94433.28;;;4.38;100.00
20017;BME280;10169;42.664;23.610;2023-04-02T01:55:37;94410.81;;;4.24;100.00
20017;BME280;10169;42.664;23.610;2023-04-02T01:57:41;94424.25;;;4.34;100.00
20017;BME280;10169;42.664;23.610;2023-04-02T01:59:43;94429.69;;;4.21;100.00
20017;BME280;10169;42.664;23.610;2023-04-02T02:04:03;94427.84;;;4.04;100.00
20017;BME280;10169;42.664;23.610;2023-04-02T02:06:04;94429.38;;;4.11;100.00
20017;BME280;10169;42.664;23.610;2023-04-02T02:08:06;94437.03;;;4.13;100.00
20017;BME280;10169;42.664;23.610;2023-04-02T02:10:14;94437.50;;;4.10;100.00
20017;BME280;10169;42.664;23.610;2023-04-02T02:12:15;94435.19;;;4.31;100.00
20017;BME280;10169;42.664;23.610;2023-04-02T02:14:22;94436.09;;;4.25;100.00
20017;BME280;10169;42.664;23.610;2023-04-02T02:16:23;94425.22;;;4.04;100.00
20017;BME280;10169;42.664;23.610;2023-04-02T02:18:26;94426.34;;;3.96;100.00
20017;BME280;10169;42.664;23.610;2023-04-02T02:20:27;94430.78;;;3.96;100.00
20017;BME280;10169;42.664;23.610;2023-04-02T02:22:35;94430.13;;;3.82;100.00
20017;BME280;10169;42.664;23.610;2023-04-02T02:24:38;94425.19;;;3.74;100.00
20017;BME280;10169;42.664;23.610;2023-04-02T02:26:40;94424.44;;;3.85;100.00
20017;BME280;10169;42.664;23.610;2023-04-02T02:28:41;94431.00;;;3.76;100.00
20017;BME280;10169;42.664;23.610;2023-04-02T02:30:46;94429.38;;;3.75;100.00
20017;BME280;10169;42.664;23.610;2023-04-02T02:32:59;94427.84;;;3.86;100.00
20017;BME280;10169;42.664;23.610;2023-04-02T02:35:11;94431.78;;;3.95;100.00
20017;BME280;10169;42.664;23.610;2023-04-02T02:37:16;94429.78;;;3.97;100.00
20017;BME280;10169;42.664;23.610;2023-04-02T02:39:41;94435.06;;;3.90;100.00
20017;BME280;10169;42.664;23.610;2023-04-02T02:46:04;94436.69;;;3.91;100.00
20017;BME280;10169;42.664;23.610;2023-04-02T02:48:07;94437.69;;;3.90;100.00
20017;BME280;10169;42.664;23.610;2023-04-02T02:50:16;94431.19;;;4.29;100.00
20017;BME280;10169;42.664;23.610;2023-04-02T02:52:35;94432.25;;;4.39;100.00
20017;BME280;10169;42.664;23.610;2023-04-02T02:54:37;94435.81;;;4.45;100.00
20017;BME280;10169;42.664;23.610;2023-04-02T02:56:40;94430.75;;;4.62;100.00
20017;BME280;10169;42.664;23.610;2023-04-02T02:58:43;94438.91;;;4.72;100.00
20017;BME280;10169;42.664;23.610;2023-04-02T03:00:43;94430.38;;;4.58;100.00
20017;BME280;10169;42.664;23.610;2023-04-02T03:02:44;94437.16;;;4.36;100.00
20017;BME280;10169;42.664;23.610;2023-04-02T03:04:48;94426.06;;;4.34;100.00
20017;BME280;10169;42.664;23.610;2023-04-02T03:06:53;94433.53;;;4.49;100.00
20017;BME280;10169;42.664;23.610;2023-04-02T03:11:09;94433.31;;;4.20;100.00
20017;BME280;10169;42.664;23.610;2023-04-02T03:13:20;94428.53;;;4.29;100.00
20017;BME280;10169;42.664;23.610;2023-04-02T03:15:33;94428.22;;;4.67;100.00
20017;BME280;10169;42.664;23.610;2023-04-02T03:19:43;94427.38;;;4.43;100.00
20017;BME280;10169;42.664;23.610;2023-04-02T03:22:05;94443.97;;;4.55;100.00
20017;BME280;10169;42.664;23.610;2023-04-02T03:24:29;94431.78;;;4.61;100.00
20017;BME280;10169;42.664;23.610;2023-04-02T03:26:33;94437.78;;;4.50;100.00
20017;BME280;10169;42.664;23.610;2023-04-02T03:28:38;94445.72;;;4.31;100.00
20017;BME280;10169;42.664;23.610;2023-04-02T03:30:45;94437.41;;;4.16;100.00
20017;BME280;10169;42.664;23.610;2023-04-02T03:32:47;94444.81;;;4.08;100.00
20017;BME280;10169;42.664;23.610;2023-04-02T03:34:50;94444.16;;;3.94;100.00
20017;BME280;10169;42.664;23.610;2023-04-02T03:36:57;94435.53;;;3.87;100.00
20017;BME280;10169;42.664;23.610;2023-04-02T03:39:05;94444.59;;;3.91;100.00
20017;BME280;10169;42.664;23.610;2023-04-02T03:41:16;94440.28;;;3.97;100.00
20017;BME280;10169;42.664;23.610;2023-04-02T03:43:19;94440.72;;;3.94;100.00
20017;BME280;10169;42.664;23.610;2023-04-02T03:45:22;94443.25;;;4.00;100.00
20017;BME280;10169;42.664;23.610;2023-04-02T03:49:32;94442.84;;;4.03;100.00
20017;BME280;10169;42.664;23.610;2023-04-02T03:51:42;94441.66;;;3.81;100.00
20017;BME280;10169;42.664;23.610;2023-04-02T03:53:47;94446.78;;;3.76;100.00
20017;BME280;10169;42.664;23.610;2023-04-02T03:55:48;94448.38;;;3.77;100.00
20017;BME280;10169;42.664;23.610;2023-04-02T03:58:00;94451.13;;;3.64;100.00
20017;BME280;10169;42.664;23.610;2023-04-02T04:00:12;94454.50;;;3.71;100.00
20017;BME280;10169;42.664;23.610;2023-04-02T04:04:16;94457.09;;;3.53;100.00
20017;BME280;10169;42.664;23.610;2023-04-02T04:06:28;94457.75;;;3.48;100.00
20017;BME280;10169;42.664;23.610;2023-04-02T04:10:52;94463.97;;;3.54;100.00
20017;BME280;10169;42.664;23.610;2023-04-02T04:12:53;94466.31;;;3.62;100.00
20017;BME280;10169;42.664;23.610;2023-04-02T04:15:06;94470.34;;;3.64;100.00
20017;BME280;10169;42.664;23.610;2023-04-02T04:19:09;94469.44;;;3.71;100.00
20017;BME280;10169;42.664;23.610;2023-04-02T04:21:21;94471.19;;;3.77;100.00
20017;BME280;10169;42.664;23.610;2023-04-02T04:23:33;94480.47;;;3.79;100.00
20017;BME280;10169;42.664;23.610;2023-04-02T04:25:34;94474.63;;;3.77;100.00
20017;BME280;10169;42.664;23.610;2023-04-02T04:27:42;94480.47;;;3.79;100.00
20017;BME280;10169;42.664;23.610;2023-04-02T04:31:48;94482.25;;;3.85;100.00
20017;BME280;10169;42.664;23.610;2023-04-02T04:33:52;94479.97;;;3.89;100.00
20017;BME280;10169;42.664;23.610;2023-04-02T04:35:57;94478.44;;;3.99;100.00
20017;BME280;10169;42.664;23.610;2023-04-02T04:38:00;94484.50;;;4.00;100.00
20017;BME280;10169;42.664;23.610;2023-04-02T04:40:04;94481.63;;;4.08;100.00
20017;BME280;10169;42.664;23.610;2023-04-02T04:42:11;94486.22;;;4.12;100.00
20017;BME280;10169;42.664;23.610;2023-04-02T04:44:16;94494.94;;;3.88;100.00
20017;BME280;10169;42.664;23.610;2023-04-02T04:46:19;94487.88;;;3.21;100.00
20017;BME280;10169;42.664;23.610;2023-04-02T04:50:33;94495.97;;;3.20;100.00
20017;BME280;10169;42.664;23.610;2023-04-02T04:52:36;94499.13;;;3.28;100.00
20017;BME280;10169;42.664;23.610;2023-04-02T04:54:38;94495.75;;;3.21;100.00
20017;BME280;10169;42.664;23.610;2023-04-02T04:56:38;94494.16;;;3.20;100.00
20017;BME280;10169;42.664;23.610;2023-04-02T04:58:41;94495.97;;;3.20;100.00
20017;BME280;10169;42.664;23.610;2023-04-02T05:03:16;94495.16;;;3.19;100.00
20017;BME280;10169;42.664;23.610;2023-04-02T05:05:24;94499.00;;;3.17;100.00
20017;BME280;10169;42.664;23.610;2023-04-02T05:07:31;94501.06;;;3.15;100.00
20017;BME280;10169;42.664;23.610;2023-04-02T05:11:42;94504.59;;;3.27;100.00
20017;BME280;10169;42.664;23.610;2023-04-02T05:13:52;94506.59;;;3.31;100.00
20017;BME280;10169;42.664;23.610;2023-04-02T05:22:22;94505.50;;;3.63;100.00
20017;BME280;10169;42.664;23.610;2023-04-02T05:26:41;94505.84;;;3.92;100.00
20017;BME280;10169;42.664;23.610;2023-04-02T05:28:45;94514.16;;;3.89;100.00
20017;BME280;10169;42.664;23.610;2023-04-02T05:31:01;94515.25;;;3.99;100.00
20017;BME280;10169;42.664;23.610;2023-04-02T05:33:03;94521.47;;;4.23;100.00
20017;BME280;10169;42.664;23.610;2023-04-02T05:35:09;94521.25;;;4.43;100.00
20017;BME280;10169;42.664;23.610;2023-04-02T05:37:15;94516.41;;;4.39;100.00
20017;BME280;10169;42.664;23.610;2023-04-02T05:39:20;94519.34;;;4.50;100.00
20017;BME280;10169;42.664;23.610;2023-04-02T05:41:26;94517.59;;;4.62;100.00
20017;BME280;10169;42.664;23.610;2023-04-02T05:43:29;94514.22;;;4.73;100.00
20017;BME280;10169;42.664;23.610;2023-04-02T05:45:32;94519.16;;;4.81;100.00
20017;BME280;10169;42.664;23.610;2023-04-02T05:47:33;94522.34;;;4.83;100.00
20017;BME280;10169;42.664;23.610;2023-04-02T05:49:49;94529.34;;;4.89;100.00
20017;BME280;10169;42.664;23.610;2023-04-02T05:51:52;94520.50;;;5.01;100.00
20017;BME280;10169;42.664;23.610;2023-04-02T05:53:56;94530.59;;;5.16;100.00
20017;BME280;10169;42.664;23.610;2023-04-02T05:58:21;94533.78;;;5.59;100.00
20017;BME280;10169;42.664;23.610;2023-04-02T06:00:37;94533.56;;;5.72;100.00
20017;BME280;10169;42.664;23.610;2023-04-02T06:02:43;94534.78;;;6.11;100.00
20017;BME280;10169;42.664;23.610;2023-04-02T06:07:14;94530.38;;;6.80;100.00
20017;BME280;10169;42.664;23.610;2023-04-02T06:09:17;94536.66;;;7.18;100.00
20017;BME280;10169;42.664;23.610;2023-04-02T06:11:22;94528.13;;;7.45;100.00
20017;BME280;10169;42.664;23.610;2023-04-02T06:13:25;94528.47;;;7.48;100.00
20017;BME280;10169;42.664;23.610;2023-04-02T06:15:26;94527.44;;;7.49;100.00
20017;BME280;10169;42.664;23.610;2023-04-02T06:17:26;94519.50;;;7.66;100.00
20017;BME280;10169;42.664;23.610;2023-04-02T06:19:31;94526.72;;;8.03;100.00
20017;BME280;10169;42.664;23.610;2023-04-02T06:21:39;94524.84;;;8.21;100.00
20017;BME280;10169;42.664;23.610;2023-04-02T06:25:50;94511.13;;;8.40;100.00
20017;BME280;10169;42.664;23.610;2023-04-02T06:27:52;94517.16;;;8.57;100.00
20017;BME280;10169;42.664;23.610;2023-04-02T06:29:56;94511.00;;;8.73;100.00
20017;BME280;10169;42.664;23.610;2023-04-02T06:31:59;94511.31;;;8.99;100.00
20017;BME280;10169;42.664;23.610;2023-04-02T06:34:00;94518.13;;;8.95;100.00
20017;BME280;10169;42.664;23.610;2023-04-02T06:36:02;94515.00;;;9.24;100.00
20017;BME280;10169;42.664;23.610;2023-04-02T06:38:03;94520.78;;;9.75;100.00
20017;BME280;10169;42.664;23.610;2023-04-02T06:40:13;94517.00;;;10.02;100.00
20017;BME280;10169;42.664;23.610;2023-04-02T06:42:21;94517.00;;;10.02;100.00
20017;BME280;10169;42.664;23.610;2023-04-02T06:44:23;94518.84;;;9.97;100.00
20017;BME280;10169;42.664;23.610;2023-04-02T06:48:26;94514.75;;;10.16;100.00
20017;BME280;10169;42.664;23.610;2023-04-02T06:52:36;94512.34;;;10.14;100.00
20017;BME280;10169;42.664;23.610;2023-04-02T06:54:39;94518.81;;;10.29;100.00
20017;BME280;10169;42.664;23.610;2023-04-02T06:58:40;94530.00;;;10.31;100.00
20017;BME280;10169;42.664;23.610;2023-04-02T07:00:41;94522.03;;;10.31;100.00
20017;BME280;10169;42.664;23.610;2023-04-02T07:02:42;94525.19;;;10.28;100.00
20017;BME280;10169;42.664;23.610;2023-04-02T07:04:42;94527.69;;;10.49;100.00
20017;BME280;10169;42.664;23.610;2023-04-02T07:06:43;94526.66;;;10.50;100.00
20017;BME280;10169;42.664;23.610;2023-04-02T07:08:43;94522.28;;;10.76;100.00
20017;BME280;10169;42.664;23.610;2023-04-02T07:10:44;94530.88;;;11.08;100.00
20017;BME280;10169;42.664;23.610;2023-04-02T07:12:45;94530.16;;;11.23;100.00
20017;BME280;10169;42.664;23.610;2023-04-02T07:14:45;94530.72;;;11.40;100.00
20017;BME280;10169;42.664;23.610;2023-04-02T07:16:47;94522.72;;;11.25;97.97
20017;BME280;10169;42.664;23.610;2023-04-02T07:18:47;94517.63;;;11.13;97.47
20017;BME280;10169;42.664;23.610;2023-04-02T07:20:47;94535.00;;;11.56;98.96
20017;BME280;10169;42.664;23.610;2023-04-02T07:22:48;94541.97;;;11.77;95.28
20017;BME280;10169;42.664;23.610;2023-04-02T07:24:48;94545.47;;;11.88;93.97
20017;BME280;10169;42.664;23.610;2023-04-02T07:26:48;94546.81;;;12.10;91.97
20017;BME280;10169;42.664;23.610;2023-04-02T07:28:49;94543.59;;;12.13;91.78
20017;BME280;10169;42.664;23.610;2023-04-02T07:30:49;94547.06;;;11.99;90.40
20017;BME280;10169;42.664;23.610;2023-04-02T07:32:50;94550.78;;;11.98;90.66
20017;BME280;10169;42.664;23.610;2023-04-02T07:34:50;94546.00;;;12.05;93.00
20017;BME280;10169;42.664;23.610;2023-04-02T07:36:50;94543.88;;;11.92;98.03
20017;BME280;10169;42.664;23.610;2023-04-02T07:38:51;94542.25;;;11.91;95.82
20017;BME280;10169;42.664;23.610;2023-04-02T07:40:51;94547.56;;;12.31;97.23
20017;BME280;10169;42.664;23.610;2023-04-02T07:42:52;94549.19;;;12.32;94.94
20017;BME280;10169;42.664;23.610;2023-04-02T07:44:52;94549.72;;;12.39;95.24
20017;BME280;10169;42.664;23.610;2023-04-02T07:46:52;94547.53;;;12.51;94.19
20017;BME280;10169;42.664;23.610;2023-04-02T07:48:53;94553.94;;;12.45;92.39
20017;BME280;10169;42.664;23.610;2023-04-02T07:50:53;94553.19;;;12.09;89.47
20017;BME280;10169;42.664;23.610;2023-04-02T07:52:53;94547.59;;;12.21;92.93
20017;BME280;10169;42.664;23.610;2023-04-02T07:54:54;94543.03;;;12.31;93.16
20017;BME280;10169;42.664;23.610;2023-04-02T07:56:55;94544.66;;;11.72;94.20
20017;BME280;10169;42.664;23.610;2023-04-02T07:58:55;94547.84;;;11.69;99.90
20017;BME280;10169;42.664;23.610;2023-04-02T08:00:56;94551.22;;;11.49;100.00
20017;BME280;10169;42.664;23.610;2023-04-02T08:02:56;94555.31;;;12.02;100.00
20017;BME280;10169;42.664;23.610;2023-04-02T08:04:57;94552.38;;;12.14;96.81
20017;BME280;10169;42.664;23.610;2023-04-02T08:06:57;94557.66;;;12.44;96.17
20017;BME280;10169;42.664;23.610;2023-04-02T08:08:57;94548.81;;;12.84;96.55
20017;BME280;10169;42.664;23.610;2023-04-02T08:10:58;94551.81;;;12.57;88.83
20017;BME280;10169;42.664;23.610;2023-04-02T08:12:58;94556.59;;;12.65;94.81
20017;BME280;10169;42.664;23.610;2023-04-02T08:14:58;94547.44;;;12.96;95.75
20017;BME280;10169;42.664;23.610;2023-04-02T08:16:59;94550.78;;;13.27;87.94
20017;BME280;10169;42.664;23.610;2023-04-02T08:18:59;94552.63;;;13.32;77.49
20017;BME280;10169;42.664;23.610;2023-04-02T08:21:00;94553.81;;;13.00;79.42
20017;BME280;10169;42.664;23.610;2023-04-02T08:23:01;94556.00;;;12.78;86.46
20017;BME280;10169;42.664;23.610;2023-04-02T08:25:02;94563.25;;;13.47;91.77
20017;BME280;10169;42.664;23.610;2023-04-02T08:27:02;94558.69;;;13.96;84.65
20017;BME280;10169;42.664;23.610;2023-04-02T08:29:03;94563.78;;;13.93;78.14
20017;BME280;10169;42.664;23.610;2023-04-02T08:31:04;94564.25;;;14.00;77.89
20017;BME280;10169;42.664;23.610;2023-04-02T08:33:07;94558.13;;;13.60;86.62
20017;BME280;10169;42.664;23.610;2023-04-02T08:35:08;94560.22;;;13.09;92.80
20017;BME280;10169;42.664;23.610;2023-04-02T08:37:10;94562.88;;;13.15;92.80
20017;BME280;10169;42.664;23.610;2023-04-02T08:39:10;94560.69;;;13.27;88.10
20017;BME280;10169;42.664;23.610;2023-04-02T08:41:18;94554.38;;;13.56;90.63
20017;BME280;10169;42.664;23.610;2023-04-02T08:43:29;94555.34;;;14.14;78.35
20017;BME280;10169;42.664;23.610;2023-04-02T08:47:37;94560.00;;;13.99;72.50
20017;BME280;10169;42.664;23.610;2023-04-02T08:51:43;94560.44;;;14.11;71.26
20017;BME280;10169;42.664;23.610;2023-04-02T08:53:45;94566.00;;;14.53;68.47
20017;BME280;10169;42.664;23.610;2023-04-02T09:00:06;94554.56;;;14.47;64.50
20017;BME280;10169;42.664;23.610;2023-04-02T09:04:17;94559.75;;;14.34;68.44
20017;BME280;10169;42.664;23.610;2023-04-02T09:06:18;94556.44;;;14.47;65.20
20017;BME280;10169;42.664;23.610;2023-04-02T09:08:20;94547.84;;;14.50;64.44
20017;BME280;10169;42.664;23.610;2023-04-02T09:10:24;94544.00;;;14.85;64.80
20017;BME280;10169;42.664;23.610;2023-04-02T09:12:30;94547.88;;;14.74;62.05
20017;BME280;10169;42.664;23.610;2023-04-02T09:16:51;94546.66;;;14.32;66.51
20017;BME280;10169;42.664;23.610;2023-04-02T09:18:52;94552.38;;;14.78;68.20
20017;BME280;10169;42.664;23.610;2023-04-02T09:20:53;94543.63;;;14.73;64.37
20017;BME280;10169;42.664;23.610;2023-04-02T09:22:53;94545.50;;;14.72;63.12
20017;BME280;10169;42.664;23.610;2023-04-02T09:24:56;94545.56;;;14.62;60.64
20017;BME280;10169;42.664;23.610;2023-04-02T09:26:56;94550.06;;;15.19;62.33
20017;BME280;10169;42.664;23.610;2023-04-02T09:29:01;94550.25;;;15.22;60.16
20017;BME280;10169;42.664;23.610;2023-04-02T09:31:04;94538.47;;;14.19;58.14
20017;BME280;10169;42.664;23.610;2023-04-02T09:33:08;94549.66;;;13.87;60.85
20017;BME280;10169;42.664;23.610;2023-04-02T09:37:16;94543.50;;;14.25;60.59
20017;BME280;10169;42.664;23.610;2023-04-02T09:39:18;94546.72;;;14.56;59.88
20017;BME280;10169;42.664;23.610;2023-04-02T09:41:19;94541.34;;;15.08;58.92
20017;BME280;10169;42.664;23.610;2023-04-02T09:43:21;94544.72;;;15.61;57.75
20017;BME280;10169;42.664;23.610;2023-04-02T09:45:22;94542.25;;;16.34;56.67
20017;BME280;10169;42.664;23.610;2023-04-02T09:47:24;94547.47;;;16.63;55.06
20017;BME280;10169;42.664;23.610;2023-04-02T09:49:26;94545.78;;;16.48;53.49
20017;BME280;10169;42.664;23.610;2023-04-02T09:51:27;94539.13;;;16.46;51.85
20017;BME280;10169;42.664;23.610;2023-04-02T09:53:34;94534.44;;;16.38;52.29
20017;BME280;10169;42.664;23.610;2023-04-02T09:55:35;94527.91;;;16.90;50.62
20017;BME280;10169;42.664;23.610;2023-04-02T09:57:35;94529.28;;;16.41;51.00
20017;BME280;10169;42.664;23.610;2023-04-02T09:59:37;94531.53;;;16.53;51.51
20017;BME280;10169;42.664;23.610;2023-04-02T10:01:41;94520.66;;;16.44;51.17
20017;BME280;10169;42.664;23.610;2023-04-02T10:03:42;94522.28;;;16.59;51.20
20017;BME280;10169;42.664;23.610;2023-04-02T10:05:45;94522.34;;;17.13;49.45
20017;BME280;10169;42.664;23.610;2023-04-02T10:07:47;94533.84;;;16.73;49.14
20017;BME280;10169;42.664;23.610;2023-04-02T10:09:55;94520.44;;;16.09;49.89
20017;BME280;10169;42.664;23.610;2023-04-02T10:11:56;94519.53;;;16.45;50.52
20017;BME280;10169;42.664;23.610;2023-04-02T10:13:58;94523.81;;;17.19;49.54
20017;BME280;10169;42.664;23.610;2023-04-02T10:18:08;94506.03;;;16.05;50.64
20017;BME280;10169;42.664;23.610;2023-04-02T10:20:16;94510.63;;;16.36;51.94
20017;BME280;10169;42.664;23.610;2023-04-02T10:22:17;94500.81;;;15.94;51.27
20017;BME280;10169;42.664;23.610;2023-04-02T10:24:18;94510.16;;;16.16;52.73
20017;BME280;10169;42.664;23.610;2023-04-02T10:26:40;94507.00;;;15.76;52.31
20017;BME280;10169;42.664;23.610;2023-04-02T10:30:59;94509.69;;;16.27;52.46
20017;BME280;10169;42.664;23.610;2023-04-02T10:33:10;94506.09;;;16.50;51.31
20017;BME280;10169;42.664;23.610;2023-04-02T10:37:32;94500.88;;;16.40;51.23
20017;BME280;10169;42.664;23.610;2023-04-02T10:39:40;94499.38;;;16.48;52.82
20017;BME280;10169;42.664;23.610;2023-04-02T10:41:45;94505.03;;;16.33;51.73
20017;BME280;10169;42.664;23.610;2023-04-02T10:52:25;94507.59;;;16.70;49.74
20017;BME280;10169;42.664;23.610;2023-04-02T10:56:36;94498.78;;;16.70;49.14
20017;BME280;10169;42.664;23.610;2023-04-02T10:58:58;94501.47;;;16.97;49.53
20017;BME280;10169;42.664;23.610;2023-04-02T11:03:41;94488.34;;;16.82;48.87
20017;BME280;10169;42.664;23.610;2023-04-02T11:05:45;94494.28;;;17.19;49.55
20017;BME280;10169;42.664;23.610;2023-04-02T11:08:21;94478.69;;;17.21;48.39
20017;BME280;10169;42.664;23.610;2023-04-02T11:10:14;94479.31;;;17.68;48.10
20017;BME280;10169;42.664;23.610;2023-04-02T11:12:20;94483.38;;;17.79;47.96
20017;BME280;10169;42.664;23.610;2023-04-02T11:16:22;94491.13;;;17.17;46.47
20017;BME280;10169;42.664;23.610;2023-04-02T11:18:30;94486.03;;;17.57;46.01
20017;BME280;10169;42.664;23.610;2023-04-02T11:20:42;94481.09;;;17.72;46.39
20017;BME280;10169;42.664;23.610;2023-04-02T11:22:43;94475.13;;;17.97;47.81
20017;BME280;10169;42.664;23.610;2023-04-02T11:26:43;94479.13;;;16.88;46.79
20017;BME280;10169;42.664;23.610;2023-04-02T11:28:46;94475.53;;;16.65;48.11
20017;BME280;10169;42.664;23.610;2023-04-02T11:30:47;94470.44;;;16.77;48.96
20017;BME280;10169;42.664;23.610;2023-04-02T11:32:47;94465.47;;;17.11;47.55
20017;BME280;10169;42.664;23.610;2023-04-02T11:38:53;94466.50;;;17.87;45.56
20017;BME280;10169;42.664;23.610;2023-04-02T11:40:54;94465.31;;;17.57;46.32
20017;BME280;10169;42.664;23.610;2023-04-02T11:42:55;94463.22;;;17.90;45.17
20017;BME280;10169;42.664;23.610;2023-04-02T11:47:28;94450.06;;;18.63;45.29
20017;BME280;10169;42.664;23.610;2023-04-02T11:49:33;94462.75;;;18.41;45.21
20017;BME280;10169;42.664;23.610;2023-04-02T11:53:37;94462.81;;;18.27;44.04
20017;BME280;10169;42.664;23.610;2023-04-02T11:55:42;94461.84;;;18.23;43.06
20017;BME280;10169;42.664;23.610;2023-04-02T12:12:49;94444.16;;;18.83;42.34
20017;BME280;10169;42.664;23.610;2023-04-02T12:14:54;94445.66;;;18.67;42.39
20017;BME280;10169;42.664;23.610;2023-04-02T12:16:55;94446.28;;;18.11;41.96
20017;BME280;10169;42.664;23.610;2023-04-02T12:18:56;94448.47;;;18.93;41.76
20017;BME280;10169;42.664;23.610;2023-04-02T12:20:56;94446.91;;;19.74;40.72
20017;BME280;10169;42.664;23.610;2023-04-02T12:22:57;94444.81;;;19.45;40.00
20017;BME280;10169;42.664;23.610;2023-04-02T12:24:58;94448.59;;;19.44;40.05
20017;BME280;10169;42.664;23.610;2023-04-02T12:29:29;94448.56;;;18.79;40.77
20017;BME280;10169;42.664;23.610;2023-04-02T12:31:30;94460.56;;;18.65;41.39
20017;BME280;10169;42.664;23.610;2023-04-02T12:33:33;94443.53;;;17.81;41.76
20017;BME280;10169;42.664;23.610;2023-04-02T12:35:36;94448.13;;;18.25;44.95
20017;BME280;10169;42.664;23.610;2023-04-02T12:37:37;94440.94;;;18.73;41.50
20017;BME280;10169;42.664;23.610;2023-04-02T12:39:37;94442.31;;;18.62;41.33
20017;BME280;10169;42.664;23.610;2023-04-02T12:41:37;94444.59;;;19.33;41.40
20017;BME280;10169;42.664;23.610;2023-04-02T12:43:37;94446.56;;;19.67;40.85
20017;BME280;10169;42.664;23.610;2023-04-02T12:45:39;94446.53;;;20.18;39.91
20017;BME280;10169;42.664;23.610;2023-04-02T12:47:42;94448.16;;;19.94;39.73
20017;BME280;10169;42.664;23.610;2023-04-02T12:49:43;94439.31;;;19.11;39.84
20017;BME280;10169;42.664;23.610;2023-04-02T12:51:44;94444.16;;;19.57;40.54
20017;BME280;10169;42.664;23.610;2023-04-02T12:53:48;94443.84;;;19.93;40.04
20017;BME280;10169;42.664;23.610;2023-04-02T12:55:49;94436.69;;;20.86;39.53
20017;BME280;10169;42.664;23.610;2023-04-02T12:57:53;94434.22;;;21.10;38.38
20017;BME280;10169;42.664;23.610;2023-04-02T12:59:58;94439.75;;;19.61;39.55
20017;BME280;10169;42.664;23.610;2023-04-02T13:02:00;94435.13;;;19.53;39.52
20017;BME280;10169;42.664;23.610;2023-04-02T13:06:01;94422.47;;;19.96;39.98
20017;BME280;10169;42.664;23.610;2023-04-02T13:08:03;94419.72;;;20.13;38.91